sensor_id;sensor_type;location;lat;lon;timestamp;pressure;altitude;pressure_sealevel;temperature;humidity
21357;BME280;10836;53.068;18.234;2022-08-01T00:00:07;100790.00;;;9.78;100.00
21357;BME280;10836;53.068;18.234;2022-08-01T00:02:55;100788.34;;;9.77;100.00
21357;BME280;10836;53.068;18.234;2022-08-01T00:05:23;100785.06;;;9.75;100.00
21357;BME280;10836;53.068;18.234;2022-08-01T00:07:50;100781.19;;;9.66;100.00
21357;BME280;10836;53.068;18.234;2022-08-01T00:10:17;100787.53;;;9.77;100.00
21357;BME280;10836;53.068;18.234;2022-08-01T00:12:45;100774.44;;;9.79;100.00
21357;BME280;10836;53.068;18.234;2022-08-01T00:15:15;100778.59;;;9.91;100.00
21357;BME280;10836;53.068;18.234;2022-08-01T00:17:43;100781.84;;;9.83;100.00
21357;BME280;10836;53.068;18.234;2022-08-01T00:20:13;100778.31;;;9.88;100.00
21357;BME280;10836;53.068;18.234;2022-08-01T00:22:40;100778.59;;;9.91;100.00
21357;BME280;10836;53.068;18.234;2022-08-01T00:25:08;100778.56;;;9.81;100.00
21357;BME280;10836;53.068;18.234;2022-08-01T00:27:35;100779.06;;;9.73;100.00
21357;BME280;10836;53.068;18.234;2022-08-01T00:30:04;100773.56;;;9.68;100.00
21357;BME280;10836;53.068;18.234;2022-08-01T00:32:43;100782.84;;;9.67;100.00
21357;BME280;10836;53.068;18.234;2022-08-01T00:35:10;100770.88;;;9.73;100.00
21357;BME280;10836;53.068;18.234;2022-08-01T00:37:37;100771.38;;;9.65;100.00
21357;BME280;10836;53.068;18.234;2022-08-01T00:40:06;100770.56;;;9.64;100.00
21357;BME280;10836;53.068;18.234;2022-08-01T00:42:33;100766.44;;;9.57;100.00
21357;BME280;10836;53.068;18.234;2022-08-01T00:45:00;100768.88;;;9.53;100.00
21357;BME280;10836;53.068;18.234;2022-08-01T00:47:27;100768.88;;;9.58;100.00
21357;BME280;10836;53.068;18.234;2022-08-01T00:49:54;100774.59;;;9.57;100.00
21357;BME280;10836;53.068;18.234;2022-08-01T00:52:21;100763.13;;;9.45;100.00
21357;BME280;10836;53.068;18.234;2022-08-01T00:54:48;100765.78;;;9.34;100.00
21357;BME280;10836;53.068;18.234;2022-08-01T00:57:15;100767.16;;;9.37;100.00
21357;BME280;10836;53.068;18.234;2022-08-01T01:00:04;100767.16;;;9.37;100.00
21357;BME280;10836;53.068;18.234;2022-08-01T01:02:31;100770.44;;;9.39;100.00
21357;BME280;10836;53.068;18.234;2022-08-01T01:04:58;100767.47;;;9.41;100.00
21357;BME280;10836;53.068;18.234;2022-08-01T01:13:16;100771.19;;;9.29;100.00
21357;BME280;10836;53.068;18.234;2022-08-01T01:16:12;100759.25;;;9.36;100.00
21357;BME280;10836;53.068;18.234;2022-08-01T01:18:49;100771.97;;;9.25;100.00
21357;BME280;10836;53.068;18.234;2022-08-01T01:27:01;100771.13;;;9.19;100.00
21357;BME280;10836;53.068;18.234;2022-08-01T01:29:38;100769.19;;;9.10;100.00
21357;BME280;10836;53.068;18.234;2022-08-01T01:32:31;100757.44;;;9.04;100.00
21357;BME280;10836;53.068;18.234;2022-08-01T01:35:06;100758.00;;;9.11;100.00
21357;BME280;10836;53.068;18.234;2022-08-01T01:37:38;100754.22;;;9.17;100.00
21357;BME280;10836;53.068;18.234;2022-08-01T01:40:07;100749.81;;;9.06;100.00
21357;BME280;10836;53.068;18.234;2022-08-01T01:42:37;100748.75;;;9.12;100.00
21357;BME280;10836;53.068;18.234;2022-08-01T01:45:06;100747.91;;;9.07;100.00
21357;BME280;10836;53.068;18.234;2022-08-01T01:47:36;100750.84;;;9.00;100.00
21357;BME280;10836;53.068;18.234;2022-08-01T01:50:07;100750.56;;;8.96;100.00
21357;BME280;10836;53.068;18.234;2022-08-01T01:52:36;100744.00;;;8.92;100.00
21357;BME280;10836;53.068;18.234;2022-08-01T01:55:06;100747.00;;;8.96;100.00
21357;BME280;10836;53.068;18.234;2022-08-01T01:57:38;100754.28;;;8.85;100.00
21357;BME280;10836;53.068;18.234;2022-08-01T02:00:07;100756.69;;;8.82;100.00
21357;BME280;10836;53.068;18.234;2022-08-01T02:02:36;100751.91;;;8.94;100.00
21357;BME280;10836;53.068;18.234;2022-08-01T02:05:05;100748.09;;;8.95;100.00
21357;BME280;10836;53.068;18.234;2022-08-01T02:07:34;100750.19;;;8.83;100.00
21357;BME280;10836;53.068;18.234;2022-08-01T02:10:04;100757.19;;;8.74;100.00
21357;BME280;10836;53.068;18.234;2022-08-01T02:12:35;100752.25;;;8.71;100.00
21357;BME280;10836;53.068;18.234;2022-08-01T02:15:04;100750.09;;;8.73;100.00
21357;BME280;10836;53.068;18.234;2022-08-01T02:17:33;100754.34;;;8.58;100.00
21357;BME280;10836;53.068;18.234;2022-08-01T02:20:04;100752.75;;;8.62;100.00
21357;BME280;10836;53.068;18.234;2022-08-01T02:22:34;100754.91;;;8.60;100.00
21357;BME280;10836;53.068;18.234;2022-08-01T02:25:30;100756.19;;;8.53;100.00
21357;BME280;10836;53.068;18.234;2022-08-01T02:28:06;100753.53;;;8.58;100.00
21357;BME280;10836;53.068;18.234;2022-08-01T02:30:37;100757.94;;;8.64;100.00
21357;BME280;10836;53.068;18.234;2022-08-01T02:33:10;100756.19;;;8.53;100.00
21357;BME280;10836;53.068;18.234;2022-08-01T02:35:45;100750.44;;;8.49;100.00
21357;BME280;10836;53.068;18.234;2022-08-01T02:38:39;100747.25;;;8.57;100.00
21357;BME280;10836;53.068;18.234;2022-08-01T02:41:09;100752.09;;;8.50;100.00
21357;BME280;10836;53.068;18.234;2022-08-01T02:43:40;100753.31;;;8.38;100.00
21357;BME280;10836;53.068;18.234;2022-08-01T02:46:25;100756.31;;;8.36;100.00
21357;BME280;10836;53.068;18.234;2022-08-01T02:48:56;100756.41;;;8.46;100.00
21357;BME280;10836;53.068;18.234;2022-08-01T02:51:26;100761.34;;;8.49;100.00
21357;BME280;10836;53.068;18.234;2022-08-01T02:53:55;100750.88;;;8.36;100.00
21357;BME280;10836;53.068;18.234;2022-08-01T02:56:24;100753.50;;;8.31;100.00
21357;BME280;10836;53.068;18.234;2022-08-01T02:59:04;100751.69;;;8.37;100.00
21357;BME280;10836;53.068;18.234;2022-08-01T03:01:36;100750.34;;;8.39;100.00
21357;BME280;10836;53.068;18.234;2022-08-01T03:04:07;100749.91;;;8.25;100.00
21357;BME280;10836;53.068;18.234;2022-08-01T03:06:37;100749.31;;;8.45;100.00
21357;BME280;10836;53.068;18.234;2022-08-01T03:09:06;100755.38;;;8.52;100.00
21357;BME280;10836;53.068;18.234;2022-08-01T03:11:36;100757.63;;;8.60;100.00
21357;BME280;10836;53.068;18.234;2022-08-01T03:14:07;100750.91;;;8.41;100.00
21357;BME280;10836;53.068;18.234;2022-08-01T03:16:37;100756.47;;;8.51;100.00
21357;BME280;10836;53.068;18.234;2022-08-01T03:19:07;100755.59;;;8.46;100.00
21357;BME280;10836;53.068;18.234;2022-08-01T03:21:36;100749.63;;;8.49;100.00
21357;BME280;10836;53.068;18.234;2022-08-01T03:24:06;100751.53;;;8.48;100.00
21357;BME280;10836;53.068;18.234;2022-08-01T03:26:36;100751.63;;;8.58;100.00
21357;BME280;10836;53.068;18.234;2022-08-01T03:29:06;100753.19;;;8.49;100.00
21357;BME280;10836;53.068;18.234;2022-08-01T03:31:37;100759.19;;;8.51;100.00
21357;BME280;10836;53.068;18.234;2022-08-01T03:34:06;100762.50;;;8.58;100.00
21357;BME280;10836;53.068;18.234;2022-08-01T03:36:38;100757.13;;;8.68;100.00
21357;BME280;10836;53.068;18.234;2022-08-01T03:39:09;100755.94;;;8.86;100.00
21357;BME280;10836;53.068;18.234;2022-08-01T03:41:41;100753.03;;;8.98;100.00
21357;BME280;10836;53.068;18.234;2022-08-01T03:44:14;100744.94;;;9.13;100.00
21357;BME280;10836;53.068;18.234;2022-08-01T03:46:45;100749.81;;;9.06;100.00
21357;BME280;10836;53.068;18.234;2022-08-01T03:49:35;100758.00;;;9.11;100.00
21357;BME280;10836;53.068;18.234;2022-08-01T03:52:04;100763.50;;;9.21;100.00
21357;BME280;10836;53.068;18.234;2022-08-01T03:54:37;100761.41;;;9.33;100.00
21357;BME280;10836;53.068;18.234;2022-08-01T03:57:07;100754.09;;;9.39;100.00
21357;BME280;10836;53.068;18.234;2022-08-01T03:59:57;100750.38;;;9.60;100.00
21357;BME280;10836;53.068;18.234;2022-08-01T04:02:26;100744.72;;;9.77;100.00
21357;BME280;10836;53.068;18.234;2022-08-01T04:04:54;100759.72;;;9.80;100.00
21357;BME280;10836;53.068;18.234;2022-08-01T04:07:28;100746.41;;;9.98;100.00
21357;BME280;10836;53.068;18.234;2022-08-01T04:09:56;100760.69;;;10.21;100.00
21357;BME280;10836;53.068;18.234;2022-08-01T04:12:24;100754.44;;;10.30;100.00
21357;BME280;10836;53.068;18.234;2022-08-01T04:14:51;100756.38;;;10.50;100.00
21357;BME280;10836;53.068;18.234;2022-08-01T04:17:18;100764.56;;;10.55;100.00
21357;BME280;10836;53.068;18.234;2022-08-01T04:19:45;100756.41;;;10.76;100.00
21357;BME280;10836;53.068;18.234;2022-08-01T04:22:16;100758.00;;;11.07;100.00
21357;BME280;10836;53.068;18.234;2022-08-01T04:24:46;100755.78;;;11.24;100.00
21357;BME280;10836;53.068;18.234;2022-08-01T04:27:29;100757.91;;;11.48;100.00
21357;BME280;10836;53.068;18.234;2022-08-01T04:30:20;100754.25;;;11.78;100.00
21357;BME280;10836;53.068;18.234;2022-08-01T04:32:49;100750.91;;;11.96;100.00
21357;BME280;10836;53.068;18.234;2022-08-01T04:35:19;100754.78;;;12.34;100.00
21357;BME280;10836;53.068;18.234;2022-08-01T04:38:08;100759.38;;;12.78;100.00
21357;BME280;10836;53.068;18.234;2022-08-01T04:40:37;100764.09;;;13.01;100.00
21357;BME280;10836;53.068;18.234;2022-08-01T04:43:04;100764.00;;;13.11;100.00
21357;BME280;10836;53.068;18.234;2022-08-01T04:45:33;100767.59;;;13.41;100.00
21357;BME280;10836;53.068;18.234;2022-08-01T04:48:01;100765.53;;;13.51;100.00
21357;BME280;10836;53.068;18.234;2022-08-01T04:50:28;100763.50;;;13.62;100.00
21357;BME280;10836;53.068;18.234;2022-08-01T04:52:57;100766.97;;;13.91;100.00
21357;BME280;10836;53.068;18.234;2022-08-01T04:55:24;100763.97;;;14.12;100.00
21357;BME280;10836;53.068;18.234;2022-08-01T04:57:51;100765.53;;;14.18;100.00
21357;BME280;10836;53.068;18.234;2022-08-01T05:00:18;100766.66;;;14.17;100.00
21357;BME280;10836;53.068;18.234;2022-08-01T05:02:45;100760.50;;;14.25;100.00
21357;BME280;10836;53.068;18.234;2022-08-01T05:05:13;100766.00;;;14.25;100.00
21357;BME280;10836;53.068;18.234;2022-08-01T05:07:41;100769.47;;;14.12;100.00
21357;BME280;10836;53.068;18.234;2022-08-01T05:10:11;100767.44;;;14.36;100.00
21357;BME280;10836;53.068;18.234;2022-08-01T05:12:39;100774.16;;;14.68;100.00
21357;BME280;10836;53.068;18.234;2022-08-01T05:15:07;100768.03;;;14.89;100.00
21357;BME280;10836;53.068;18.234;2022-08-01T05:17:41;100774.69;;;15.02;100.00
21357;BME280;10836;53.068;18.234;2022-08-01T05:20:11;100775.03;;;15.14;100.00
21357;BME280;10836;53.068;18.234;2022-08-01T05:22:39;100775.34;;;15.13;100.00
21357;BME280;10836;53.068;18.234;2022-08-01T05:25:06;100768.06;;;15.03;100.00
21357;BME280;10836;53.068;18.234;2022-08-01T05:27:33;100765.53;;;15.20;100.00
21357;BME280;10836;53.068;18.234;2022-08-01T05:30:09;100764.81;;;15.61;100.00
21357;BME280;10836;53.068;18.234;2022-08-01T05:32:37;100768.88;;;15.77;100.00
21357;BME280;10836;53.068;18.234;2022-08-01T05:35:05;100763.28;;;15.96;99.19
21357;BME280;10836;53.068;18.234;2022-08-01T05:37:33;100762.06;;;15.88;100.00
21357;BME280;10836;53.068;18.234;2022-08-01T05:40:00;100766.53;;;15.84;99.84
21357;BME280;10836;53.068;18.234;2022-08-01T05:42:27;100768.28;;;15.80;100.00
21357;BME280;10836;53.068;18.234;2022-08-01T05:44:54;100770.50;;;15.78;100.00
21357;BME280;10836;53.068;18.234;2022-08-01T05:47:21;100767.06;;;15.86;100.00
21357;BME280;10836;53.068;18.234;2022-08-01T05:49:48;100771.03;;;15.80;100.00
21357;BME280;10836;53.068;18.234;2022-08-01T05:52:15;100767.56;;;15.88;100.00
21357;BME280;10836;53.068;18.234;2022-08-01T05:54:42;100771.03;;;15.67;100.00
21357;BME280;10836;53.068;18.234;2022-08-01T05:57:09;100761.72;;;16.04;100.00
21357;BME280;10836;53.068;18.234;2022-08-01T05:59:38;100756.75;;;15.92;100.00
21357;BME280;10836;53.068;18.234;2022-08-01T06:02:05;100753.69;;;15.93;100.00
21357;BME280;10836;53.068;18.234;2022-08-01T06:04:32;100754.41;;;15.99;100.00
21357;BME280;10836;53.068;18.234;2022-08-01T06:06:59;100748.59;;;16.01;100.00
21357;BME280;10836;53.068;18.234;2022-08-01T06:09:26;100744.00;;;15.96;100.00
21357;BME280;10836;53.068;18.234;2022-08-01T06:11:53;100747.81;;;16.09;100.00
21357;BME280;10836;53.068;18.234;2022-08-01T06:14:20;100749.53;;;16.32;100.00
21357;BME280;10836;53.068;18.234;2022-08-01T06:16:48;100752.91;;;16.29;100.00
21357;BME280;10836;53.068;18.234;2022-08-01T06:19:14;100751.78;;;16.52;100.00
21357;BME280;10836;53.068;18.234;2022-08-01T06:21:41;100765.31;;;16.40;100.00
21357;BME280;10836;53.068;18.234;2022-08-01T06:24:09;100763.91;;;16.29;100.00
21357;BME280;10836;53.068;18.234;2022-08-01T06:26:36;100759.41;;;16.33;100.00
21357;BME280;10836;53.068;18.234;2022-08-01T06:29:03;100765.66;;;16.25;100.00
21357;BME280;10836;53.068;18.234;2022-08-01T06:31:31;100767.31;;;16.48;100.00
21357;BME280;10836;53.068;18.234;2022-08-01T06:33:59;100761.19;;;16.51;100.00
21357;BME280;10836;53.068;18.234;2022-08-01T06:36:26;100765.88;;;16.65;100.00
21357;BME280;10836;53.068;18.234;2022-08-01T06:38:54;100758.03;;;16.80;100.00
21357;BME280;10836;53.068;18.234;2022-08-01T06:41:20;100762.97;;;16.92;100.00
21357;BME280;10836;53.068;18.234;2022-08-01T06:43:48;100755.44;;;17.06;100.00
21357;BME280;10836;53.068;18.234;2022-08-01T06:46:15;100762.19;;;17.22;100.00
21357;BME280;10836;53.068;18.234;2022-08-01T06:48:42;100757.84;;;17.30;99.46
21357;BME280;10836;53.068;18.234;2022-08-01T06:51:09;100763.50;;;17.25;99.33
21357;BME280;10836;53.068;18.234;2022-08-01T06:53:38;100761.13;;;17.32;99.54
21357;BME280;10836;53.068;18.234;2022-08-01T06:56:06;100765.97;;;17.35;99.28
21357;BME280;10836;53.068;18.234;2022-08-01T06:58:33;100760.47;;;17.66;97.20
21357;BME280;10836;53.068;18.234;2022-08-01T07:01:03;100760.22;;;17.54;96.33
21357;BME280;10836;53.068;18.234;2022-08-01T07:03:33;100759.22;;;17.50;97.10
21357;BME280;10836;53.068;18.234;2022-08-01T07:06:24;100761.63;;;17.43;97.57
21357;BME280;10836;53.068;18.234;2022-08-01T07:08:52;100767.22;;;17.60;97.47
21357;BME280;10836;53.068;18.234;2022-08-01T07:11:20;100761.00;;;17.85;97.02
21357;BME280;10836;53.068;18.234;2022-08-01T07:13:48;100761.41;;;18.10;96.18
21357;BME280;10836;53.068;18.234;2022-08-01T07:16:16;100761.41;;;18.27;91.54
21357;BME280;10836;53.068;18.234;2022-08-01T07:18:43;100752.63;;;18.42;93.20
21357;BME280;10836;53.068;18.234;2022-08-01T07:21:10;100756.22;;;18.69;91.80
21357;BME280;10836;53.068;18.234;2022-08-01T07:23:57;100758.97;;;18.43;88.46
21357;BME280;10836;53.068;18.234;2022-08-01T07:26:26;100758.81;;;18.39;88.14
21357;BME280;10836;53.068;18.234;2022-08-01T07:28:54;100761.75;;;18.51;88.61
21357;BME280;10836;53.068;18.234;2022-08-01T07:31:21;100764.94;;;19.22;87.88
21357;BME280;10836;53.068;18.234;2022-08-01T07:33:48;100763.25;;;19.39;84.52
21357;BME280;10836;53.068;18.234;2022-08-01T07:36:17;100762.25;;;18.88;83.41
21357;BME280;10836;53.068;18.234;2022-08-01T07:38:44;100770.59;;;19.35;83.72
21357;BME280;10836;53.068;18.234;2022-08-01T07:41:11;100766.00;;;19.47;83.71
21357;BME280;10836;53.068;18.234;2022-08-01T07:43:39;100769.88;;;19.55;82.33
21357;BME280;10836;53.068;18.234;2022-08-01T07:46:06;100770.22;;;19.53;83.30
21357;BME280;10836;53.068;18.234;2022-08-01T07:48:33;100771.31;;;19.61;82.97
21357;BME280;10836;53.068;18.234;2022-08-01T07:51:01;100764.31;;;19.64;82.95
21357;BME280;10836;53.068;18.234;2022-08-01T07:53:27;100751.69;;;19.37;84.55
21357;BME280;10836;53.068;18.234;2022-08-01T07:55:55;100765.00;;;19.05;83.41
21357;BME280;10836;53.068;18.234;2022-08-01T07:58:22;100768.03;;;19.21;82.88
21357;BME280;10836;53.068;18.234;2022-08-01T08:00:49;100765.44;;;19.16;84.73
21357;BME280;10836;53.068;18.234;2022-08-01T08:03:17;100763.72;;;18.77;85.38
21357;BME280;10836;53.068;18.234;2022-08-01T08:05:43;100759.97;;;18.81;84.97
21357;BME280;10836;53.068;18.234;2022-08-01T08:08:26;100769.84;;;19.08;84.81
21357;BME280;10836;53.068;18.234;2022-08-01T08:10:54;100757.84;;;18.87;85.32
21357;BME280;10836;53.068;18.234;2022-08-01T08:13:21;100767.13;;;18.82;86.61
21357;BME280;10836;53.068;18.234;2022-08-01T08:15:48;100769.09;;;18.82;86.34
21357;BME280;10836;53.068;18.234;2022-08-01T08:18:15;100768.59;;;18.97;85.64
21357;BME280;10836;53.068;18.234;2022-08-01T08:20:43;100772.22;;;19.36;86.20
21357;BME280;10836;53.068;18.234;2022-08-01T08:23:10;100776.19;;;19.09;83.26
21357;BME280;10836;53.068;18.234;2022-08-01T08:26:09;100770.25;;;19.45;83.01
21357;BME280;10836;53.068;18.234;2022-08-01T08:28:36;100769.34;;;19.70;82.26
21357;BME280;10836;53.068;18.234;2022-08-01T08:31:07;100769.16;;;19.75;81.82
21357;BME280;10836;53.068;18.234;2022-08-01T08:33:51;100766.19;;;19.34;81.26
21357;BME280;10836;53.068;18.234;2022-08-01T08:36:18;100777.72;;;19.53;82.13
21357;BME280;10836;53.068;18.234;2022-08-01T08:38:45;100777.44;;;19.84;82.35
21357;BME280;10836;53.068;18.234;2022-08-01T08:41:13;100776.13;;;20.11;82.01
21357;BME280;10836;53.068;18.234;2022-08-01T08:43:47;100777.31;;;20.51;79.78
21357;BME280;10836;53.068;18.234;2022-08-01T08:46:14;100779.34;;;20.42;79.21
21357;BME280;10836;53.068;18.234;2022-08-01T08:48:41;100784.63;;;20.56;78.06
21357;BME280;10836;53.068;18.234;2022-08-01T08:51:09;100781.38;;;20.75;77.33
21357;BME280;10836;53.068;18.234;2022-08-01T08:53:40;100792.78;;;20.94;76.91
21357;BME280;10836;53.068;18.234;2022-08-01T08:56:12;100795.16;;;21.37;74.15
21357;BME280;10836;53.068;18.234;2022-08-01T08:58:44;100780.69;;;21.44;74.06
21357;BME280;10836;53.068;18.234;2022-08-01T09:01:12;100790.66;;;21.57;73.43
21357;BME280;10836;53.068;18.234;2022-08-01T09:03:40;100788.38;;;21.59;71.80
21357;BME280;10836;53.068;18.234;2022-08-01T09:06:07;100790.06;;;21.39;73.43
21357;BME280;10836;53.068;18.234;2022-08-01T09:08:35;100791.56;;;21.37;73.13
21357;BME280;10836;53.068;18.234;2022-08-01T09:11:02;100793.22;;;21.74;74.39
21357;BME280;10836;53.068;18.234;2022-08-01T09:13:30;100794.31;;;22.06;72.32
21357;BME280;10836;53.068;18.234;2022-08-01T09:15:57;100800.53;;;22.28;71.20
21357;BME280;10836;53.068;18.234;2022-08-01T09:18:31;100795.88;;;22.32;71.23
21357;BME280;10836;53.068;18.234;2022-08-01T09:21:18;100799.94;;;22.22;69.85
21357;BME280;10836;53.068;18.234;2022-08-01T09:26:29;100799.41;;;21.35;72.91
21357;BME280;10836;53.068;18.234;2022-08-01T09:28:58;100794.53;;;21.32;74.91
21357;BME280;10836;53.068;18.234;2022-08-01T09:31:27;100799.41;;;21.35;74.39
21357;BME280;10836;53.068;18.234;2022-08-01T09:34:04;100794.84;;;21.18;75.30
21357;BME280;10836;53.068;18.234;2022-08-01T09:37:10;100796.28;;;21.03;75.08
21357;BME280;10836;53.068;18.234;2022-08-01T09:39:39;100803.00;;;21.02;74.32
21357;BME280;10836;53.068;18.234;2022-08-01T09:42:26;100801.03;;;21.36;73.52
21357;BME280;10836;53.068;18.234;2022-08-01T09:44:55;100799.03;;;21.24;73.40
21357;BME280;10836;53.068;18.234;2022-08-01T09:47:37;100799.16;;;21.28;73.47
21357;BME280;10836;53.068;18.234;2022-08-01T09:50:05;100797.41;;;21.23;75.96
21357;BME280;10836;53.068;18.234;2022-08-01T09:52:37;100795.81;;;21.01;76.33
21357;BME280;10836;53.068;18.234;2022-08-01T09:55:07;100800.69;;;21.04;75.96
21357;BME280;10836;53.068;18.234;2022-08-01T09:57:34;100794.47;;;21.07;74.77
21357;BME280;10836;53.068;18.234;2022-08-01T10:00:03;100798.34;;;20.94;78.87
21357;BME280;10836;53.068;18.234;2022-08-01T10:02:39;100789.06;;;20.90;77.96
21357;BME280;10836;53.068;18.234;2022-08-01T10:05:10;100787.91;;;20.91;77.57
21357;BME280;10836;53.068;18.234;2022-08-01T10:08:02;100786.59;;;21.09;78.30
21357;BME280;10836;53.068;18.234;2022-08-01T10:10:34;100792.03;;;20.85;76.12
21357;BME280;10836;53.068;18.234;2022-08-01T10:13:03;100795.69;;;20.98;76.24
21357;BME280;10836;53.068;18.234;2022-08-01T10:15:31;100796.72;;;20.93;77.63
21357;BME280;10836;53.068;18.234;2022-08-01T10:18:05;100785.56;;;21.14;75.56
21357;BME280;10836;53.068;18.234;2022-08-01T10:20:53;100791.97;;;21.27;74.60
21357;BME280;10836;53.068;18.234;2022-08-01T10:23:26;100790.44;;;21.50;74.03
21357;BME280;10836;53.068;18.234;2022-08-01T10:26:07;100782.22;;;22.14;70.82
21357;BME280;10836;53.068;18.234;2022-08-01T10:28:36;100785.22;;;22.34;70.60
21357;BME280;10836;53.068;18.234;2022-08-01T10:31:07;100788.09;;;22.89;71.12
21357;BME280;10836;53.068;18.234;2022-08-01T10:33:39;100787.88;;;22.42;68.70
21357;BME280;10836;53.068;18.234;2022-08-01T10:36:20;100781.16;;;22.31;71.24
21357;BME280;10836;53.068;18.234;2022-08-01T10:38:49;100784.84;;;22.47;69.20
21357;BME280;10836;53.068;18.234;2022-08-01T10:41:18;100777.56;;;22.71;68.53
21357;BME280;10836;53.068;18.234;2022-08-01T10:43:45;100772.50;;;22.61;68.45
21357;BME280;10836;53.068;18.234;2022-08-01T10:46:13;100767.22;;;23.11;68.01
21357;BME280;10836;53.068;18.234;2022-08-01T10:48:49;100774.34;;;23.25;66.02
21357;BME280;10836;53.068;18.234;2022-08-01T10:51:18;100775.16;;;22.97;67.20
21357;BME280;10836;53.068;18.234;2022-08-01T10:53:50;100768.88;;;23.00;64.01
21357;BME280;10836;53.068;18.234;2022-08-01T10:56:21;100768.16;;;22.75;66.87
21357;BME280;10836;53.068;18.234;2022-08-01T10:59:03;100765.47;;;23.35;62.80
21357;BME280;10836;53.068;18.234;2022-08-01T11:01:37;100767.75;;;23.17;63.75
21357;BME280;10836;53.068;18.234;2022-08-01T11:04:14;100769.25;;;23.58;64.70
21357;BME280;10836;53.068;18.234;2022-08-01T11:09:39;100771.34;;;24.12;61.46
21357;BME280;10836;53.068;18.234;2022-08-01T11:12:12;100762.50;;;24.61;58.39
21357;BME280;10836;53.068;18.234;2022-08-01T11:17:40;100761.75;;;24.64;60.04
21357;BME280;10836;53.068;18.234;2022-08-01T11:20:26;100763.78;;;23.77;62.48
21357;BME280;10836;53.068;18.234;2022-08-01T11:28:26;100756.84;;;24.96;55.81
21357;BME280;10836;53.068;18.234;2022-08-01T11:38:38;100760.94;;;25.02;55.00
21357;BME280;10836;53.068;18.234;2022-08-01T11:52:08;100756.66;;;26.89;50.13
21357;BME280;10836;53.068;18.234;2022-08-01T11:54:41;100749.38;;;26.81;51.20
21357;BME280;10836;53.068;18.234;2022-08-01T11:57:34;100756.19;;;26.50;53.81
21357;BME280;10836;53.068;18.234;2022-08-01T12:00:13;100748.25;;;27.63;51.19
21357;BME280;10836;53.068;18.234;2022-08-01T12:02:45;100744.69;;;27.70;50.33
21357;BME280;10836;53.068;18.234;2022-08-01T12:05:15;100753.59;;;27.82;49.71
21357;BME280;10836;53.068;18.234;2022-08-01T12:07:49;100757.41;;;28.11;50.00
21357;BME280;10836;53.068;18.234;2022-08-01T12:10:22;100751.19;;;27.85;50.94
21357;BME280;10836;53.068;18.234;2022-08-01T12:12:55;100759.63;;;28.46;49.21
21357;BME280;10836;53.068;18.234;2022-08-01T12:15:23;100757.41;;;28.84;50.15
21357;BME280;10836;53.068;18.234;2022-08-01T12:17:56;100752.06;;;28.65;48.44
21357;BME280;10836;53.068;18.234;2022-08-01T12:20:33;100759.94;;;29.35;47.49
21357;BME280;10836;53.068;18.234;2022-08-01T12:23:07;100756.25;;;28.96;46.26
21357;BME280;10836;53.068;18.234;2022-08-01T12:25:35;100760.25;;;28.15;46.41
21357;BME280;10836;53.068;18.234;2022-08-01T12:28:07;100746.59;;;28.17;45.60
21357;BME280;10836;53.068;18.234;2022-08-01T12:30:36;100755.78;;;26.81;50.02
21357;BME280;10836;53.068;18.234;2022-08-01T12:33:06;100746.81;;;26.35;51.10
21357;BME280;10836;53.068;18.234;2022-08-01T12:35:34;100739.22;;;27.03;50.85
21357;BME280;10836;53.068;18.234;2022-08-01T12:38:13;100749.03;;;27.20;50.17
21357;BME280;10836;53.068;18.234;2022-08-01T12:40:42;100744.28;;;27.27;49.07
21357;BME280;10836;53.068;18.234;2022-08-01T12:43:19;100744.69;;;26.92;48.53
21357;BME280;10836;53.068;18.234;2022-08-01T12:45:56;100743.19;;;26.98;48.70
21357;BME280;10836;53.068;18.234;2022-08-01T12:48:25;100746.41;;;27.00;48.77
21357;BME280;10836;53.068;18.234;2022-08-01T12:50:53;100741.47;;;27.24;49.02
21357;BME280;10836;53.068;18.234;2022-08-01T12:53:25;100742.56;;;27.15;52.20
21357;BME280;10836;53.068;18.234;2022-08-01T12:56:08;100746.53;;;28.03;50.38
21357;BME280;10836;53.068;18.234;2022-08-01T12:58:38;100736.38;;;28.46;48.59
21357;BME280;10836;53.068;18.234;2022-08-01T13:01:09;100746.94;;;28.81;47.39
21357;BME280;10836;53.068;18.234;2022-08-01T13:03:38;100748.28;;;28.25;46.59
21357;BME280;10836;53.068;18.234;2022-08-01T13:06:13;100737.28;;;28.75;46.85
21357;BME280;10836;53.068;18.234;2022-08-01T13:08:42;100743.06;;;29.32;45.83
21357;BME280;10836;53.068;18.234;2022-08-01T13:11:11;100747.78;;;28.16;46.17
21357;BME280;10836;53.068;18.234;2022-08-01T13:13:50;100742.00;;;28.53;47.16
21357;BME280;10836;53.068;18.234;2022-08-01T13:16:20;100752.03;;;28.51;46.00
21357;BME280;10836;53.068;18.234;2022-08-01T13:19:04;100745.50;;;27.70;47.69
21357;BME280;10836;53.068;18.234;2022-08-01T13:21:33;100746.34;;;28.36;48.48
21357;BME280;10836;53.068;18.234;2022-08-01T13:24:27;100743.81;;;29.00;46.06
21357;BME280;10836;53.068;18.234;2022-08-01T13:26:58;100746.50;;;28.75;45.72
21357;BME280;10836;53.068;18.234;2022-08-01T13:29:37;100737.72;;;28.84;44.59
21357;BME280;10836;53.068;18.234;2022-08-01T13:32:15;100740.44;;;28.63;44.36
21357;BME280;10836;53.068;18.234;2022-08-01T13:35:07;100742.84;;;28.64;47.02
21357;BME280;10836;53.068;18.234;2022-08-01T13:37:40;100741.78;;;28.90;43.90
21357;BME280;10836;53.068;18.234;2022-08-01T13:40:08;100745.28;;;28.73;43.87
21357;BME280;10836;53.068;18.234;2022-08-01T13:42:36;100753.66;;;28.52;43.61